Nexoe Maersk — OVYB2 — position and weather

sailwx.info

Track history (hours):
 
Tides and Currents Weather Stations Pressure Air Temp Water Temp Dewpoint Dewpoint Depression Visibility Wind Speed Wind Dir Waves Ship Positions

Nexoe Maersk

Last reported at 2018-May-20 21:30 UTC. Time now 2018-May-20 21:46 UTC.
Position N 37°45' E 016°06'.

Length 198 m; beam 30 m; draft 11 m.

Type: Cargo ship. MMSI: 219955000.

Date/timePositionNaut miles runAvg speedWind from/ knotsBaromVisibWave heightAir tempDewpointWater temp
2018-May-20 21:30N 37°45' E 016°06'91418.9
2018-May-18 21:00N 33°03' E 033°53'1019.8
2018-May-18 20:31N 33°01' E 034°04'1820.0
2018-May-18 19:37N 32°58' E 034°25'220.1
2018-May-18 19:30N 32°57' E 034°28'1020.1
2018-May-18 19:01N 32°55' E 034°40'816.7
2018-May-18 18:30N 32°53' E 034°49'815.1
2018-May-18 18:00N 32°52' E 034°58'2 0.1
2018-May-17 17:49N 32°51' E 035°00'1 1.9
2018-May-17 17:24N 32°51' E 034°60'2 4.6
2018-May-17 17:00N 32°52' E 034°58'510.4
2018-May-17 16:30N 32°51' E 034°51'1 1.9
2018-May-17 16:00N 32°51' E 034°51'3 5.3
2018-May-17 15:30N 32°48' E 034°50'3 5.1
2018-May-17 15:00N 32°46' E 034°49'0 1.0
2018-May-17 14:30N 32°46' E 034°48'1 1.4
2018-May-17 14:00N 32°47' E 034°49'1 1.3
2018-May-17 13:30N 32°47' E 034°49'1 1.4
2018-May-17 13:00N 32°48' E 034°50'1 1.5
2018-May-17 12:30N 32°49' E 034°50'1 1.5
2018-May-17 12:00N 32°49' E 034°50'1 1.5
2018-May-17 11:30N 32°50' E 034°51'1 1.5
2018-May-17 11:00N 32°51' E 034°51'1 1.2
2018-May-17 10:30N 32°51' E 034°51'1 2.6
2018-May-17 10:00N 32°50' E 034°52'0 0.8
2018-May-17 09:30N 32°51' E 034°51'2 3.4
2018-May-17 08:59N 32°50' E 034°50'2 3.7
2018-May-17 08:30N 32°50' E 034°48'1 0.8
2018-May-17 07:48N 32°51' E 034°48'0 0.7
2018-May-17 07:30N 32°51' E 034°48'0 0.7
2018-May-17 07:00N 32°51' E 034°48'1 1.1
2018-May-17 06:24N 32°51' E 034°49'1 3.3
2018-May-17 06:00N 32°51' E 034°51'1 1.5
2018-May-17 05:30N 32°51' E 034°50'4 7.9
2018-May-17 05:00N 32°53' E 034°46'2913.8
2018-May-17 02:55N 32°58' E 034°12'613.9
2018-May-17 02:30N 32°60' E 034°05'714.0
2018-May-17 02:01N 33°01' E 033°57'714.1
2018-May-17 01:31N 33°02' E 033°49'713.8
2018-May-17 01:00N 33°01' E 033°41'713.8
2018-May-17 00:30N 32°59' E 033°33'713.8
2018-May-17 00:00N 32°57' E 033°25'913.8
2018-May-16 23:23N 32°54' E 033°15'513.8
2018-May-16 22:59N 32°53' E 033°09'713.8
2018-May-16 22:30N 32°51' E 033°01'713.6
2018-May-16 22:00N 32°48' E 032°54'713.7
2018-May-16 21:30N 32°46' E 032°46'713.8
2018-May-16 20:59N 32°43' E 032°38'713.8
2018-May-16 20:31N 32°41' E 032°31'713.9
2018-May-16 20:00N 32°38' E 032°23'814.0
2018-May-16 19:28N 32°35' E 032°15'1613.9
2018-May-16 18:21N 32°29' E 031°58'513.9
2018-May-16 18:00N 32°27' E 031°53'714.0
2018-May-16 17:31N 32°25' E 031°45'2714.1
2018-May-16 15:38N 32°14' E 031°16'214.1
2018-May-16 15:30N 32°13' E 031°15'813.9
2018-May-16 14:56N 32°10' E 031°06'613.9
2018-May-16 14:28N 32°08' E 030°58'913.3
2018-May-16 13:48N 32°05' E 030°49'3518.0
2018-May-16 11:51N 31°47' E 030°13'919.2
2018-May-16 11:23N 31°41' E 030°06'719.3
2018-May-16 11:01N 31°36' E 029°60'1019.4
2018-May-16 10:30N 31°28' E 029°52'  
2018-May-11 16:31N 37°42' E 016°11'013.1
2018-May-11 16:30N 37°42' E 016°11'1713.7
2018-May-11 15:15N 37°49' E 015°51'413.5
2018-May-11 14:58N 37°51' E 015°46'1013.0
2018-May-11 14:13N 37°56' E 015°36'312.8
2018-May-11 14:00N 37°58' E 015°34'713.7
2018-May-11 13:30N 38°05' E 015°34'713.2
2018-May-11 13:00N 38°12' E 015°36'713.6
2018-May-11 12:30N 38°17' E 015°40'4 8.2
2018-May-11 11:59N 38°21' E 015°37'713.6
2018-May-11 11:29N 38°26' E 015°32'612.2
2018-May-11 10:59N 38°30' E 015°26'613.3
2018-May-11 10:30N 38°35' E 015°20'612.9
2018-May-11 10:00N 38°39' E 015°14'713.1
2018-May-11 09:30N 38°44' E 015°08'713.1
2018-May-11 08:59N 38°49' E 015°02'613.0
2018-May-11 08:29N 38°53' E 014°56'  
Track history (hours):
 
Tides and Currents Weather Stations Pressure Air Temp Water Temp Dewpoint Dewpoint Depression Visibility Wind Speed Wind Dir Waves Ship Positions

Nexoe Maersk

Last reported at 2018-May-20 21:30 UTC. Time now 2018-May-20 21:46 UTC.
Position N 37°45' E 016°06'.

Length 198 m; beam 30 m; draft 11 m.

Type: Cargo ship. MMSI: 219955000.

Date/timePositionNaut miles runAvg speedWind from/ knotsBaromVisibWave heightAir tempDewpointWater temp
2018-May-20 21:30N 37°45' E 016°06'91418.9
2018-May-18 21:00N 33°03' E 033°53'1019.8
2018-May-18 20:31N 33°01' E 034°04'1820.0
2018-May-18 19:37N 32°58' E 034°25'220.1
2018-May-18 19:30N 32°57' E 034°28'1020.1
2018-May-18 19:01N 32°55' E 034°40'816.7
2018-May-18 18:30N 32°53' E 034°49'815.1
2018-May-18 18:00N 32°52' E 034°58'2 0.1
2018-May-17 17:49N 32°51' E 035°00'1 1.9
2018-May-17 17:24N 32°51' E 034°60'2 4.6
2018-May-17 17:00N 32°52' E 034°58'510.4
2018-May-17 16:30N 32°51' E 034°51'1 1.9
2018-May-17 16:00N 32°51' E 034°51'3 5.3
2018-May-17 15:30N 32°48' E 034°50'3 5.1
2018-May-17 15:00N 32°46' E 034°49'0 1.0
2018-May-17 14:30N 32°46' E 034°48'1 1.4
2018-May-17 14:00N 32°47' E 034°49'1 1.3
2018-May-17 13:30N 32°47' E 034°49'1 1.4
2018-May-17 13:00N 32°48' E 034°50'1 1.5
2018-May-17 12:30N 32°49' E 034°50'1 1.5
2018-May-17 12:00N 32°49' E 034°50'1 1.5
2018-May-17 11:30N 32°50' E 034°51'1 1.5
2018-May-17 11:00N 32°51' E 034°51'1 1.2
2018-May-17 10:30N 32°51' E 034°51'1 2.6
2018-May-17 10:00N 32°50' E 034°52'0 0.8
2018-May-17 09:30N 32°51' E 034°51'2 3.4
2018-May-17 08:59N 32°50' E 034°50'2 3.7
2018-May-17 08:30N 32°50' E 034°48'1 0.8
2018-May-17 07:48N 32°51' E 034°48'0 0.7
2018-May-17 07:30N 32°51' E 034°48'0 0.7
2018-May-17 07:00N 32°51' E 034°48'1 1.1
2018-May-17 06:24N 32°51' E 034°49'1 3.3
2018-May-17 06:00N 32°51' E 034°51'1 1.5
2018-May-17 05:30N 32°51' E 034°50'4 7.9
2018-May-17 05:00N 32°53' E 034°46'2913.8
2018-May-17 02:55N 32°58' E 034°12'613.9
2018-May-17 02:30N 32°60' E 034°05'714.0
2018-May-17 02:01N 33°01' E 033°57'714.1
2018-May-17 01:31N 33°02' E 033°49'713.8
2018-May-17 01:00N 33°01' E 033°41'713.8
2018-May-17 00:30N 32°59' E 033°33'713.8
2018-May-17 00:00N 32°57' E 033°25'913.8
2018-May-16 23:23N 32°54' E 033°15'513.8
2018-May-16 22:59N 32°53' E 033°09'713.8
2018-May-16 22:30N 32°51' E 033°01'713.6
2018-May-16 22:00N 32°48' E 032°54'713.7
2018-May-16 21:30N 32°46' E 032°46'713.8
2018-May-16 20:59N 32°43' E 032°38'713.8
2018-May-16 20:31N 32°41' E 032°31'713.9
2018-May-16 20:00N 32°38' E 032°23'814.0
2018-May-16 19:28N 32°35' E 032°15'1613.9
2018-May-16 18:21N 32°29' E 031°58'513.9
2018-May-16 18:00N 32°27' E 031°53'714.0
2018-May-16 17:31N 32°25' E 031°45'2714.1
2018-May-16 15:38N 32°14' E 031°16'214.1
2018-May-16 15:30N 32°13' E 031°15'813.9
2018-May-16 14:56N 32°10' E 031°06'613.9
2018-May-16 14:28N 32°08' E 030°58'913.3
2018-May-16 13:48N 32°05' E 030°49'3518.0
2018-May-16 11:51N 31°47' E 030°13'919.2
2018-May-16 11:23N 31°41' E 030°06'719.3
2018-May-16 11:01N 31°36' E 029°60'1019.4
2018-May-16 10:30N 31°28' E 029°52'  
2018-May-11 16:31N 37°42' E 016°11'013.1
2018-May-11 16:30N 37°42' E 016°11'1713.7
2018-May-11 15:15N 37°49' E 015°51'413.5
2018-May-11 14:58N 37°51' E 015°46'1013.0
2018-May-11 14:13N 37°56' E 015°36'312.8
2018-May-11 14:00N 37°58' E 015°34'713.7
2018-May-11 13:30N 38°05' E 015°34'713.2
2018-May-11 13:00N 38°12' E 015°36'713.6
2018-May-11 12:30N 38°17' E 015°40'4 8.2
2018-May-11 11:59N 38°21' E 015°37'713.6
2018-May-11 11:29N 38°26' E 015°32'612.2
2018-May-11 10:59N 38°30' E 015°26'613.3
2018-May-11 10:30N 38°35' E 015°20'612.9
2018-May-11 10:00N 38°39' E 015°14'713.1
2018-May-11 09:30N 38°44' E 015°08'713.1
2018-May-11 08:59N 38°49' E 015°02'613.0
2018-May-11 08:29N 38°53' E 014°56'  

Dump ship's entire track history